Time,TemperatureF,DewpointF,PressureIn,WindDirection,WindDirectionDegrees,WindSpeedMPH,WindSpeedGustMPH,Humidity,HourlyPrecipIn,Conditions,Clouds,dailyrainin,SoftwareType,DateUTC
2013-11-05 00:05:00,34.5,31.0,30.14,ESE,112,2.0,12.0,85,0.00,,,0.00,weatherlink.com 1.10,2013-11-05 08:05:00,
2013-11-05 00:20:00,34.5,31.0,30.14,SE,133,3.0,9.0,85,0.00,,,0.00,weatherlink.com 1.10,2013-11-05 08:20:00,
2013-11-05 00:35:00,35.0,30.0,30.14,East,90,4.0,9.0,83,0.00,,,0.00,weatherlink.com 1.10,2013-11-05 08:35:00,
2013-11-05 00:50:00,35.1,30.0,30.14,SE,142,7.0,10.0,83,0.00,,,0.00,weatherlink.com 1.10,2013-11-05 08:50:00,
2013-11-05 01:05:00,35.6,31.0,30.14,SSE,152,5.0,7.0,82,0.00,,,0.00,weatherlink.com 1.10,2013-11-05 09:05:00,
2013-11-05 01:20:00,35.0,31.0,30.14,ESE,105,2.0,7.0,85,0.02,,,0.02,weatherlink.com 1.10,2013-11-05 09:20:00,
2013-11-05 01:36:00,34.2,31.0,30.13,East,91,1.0,8.0,89,0.04,,,0.04,weatherlink.com 1.10,2013-11-05 09:36:00,
2013-11-05 01:51:00,34.2,32.0,30.13,ESE,103,7.0,8.0,90,0.04,,,0.00,weatherlink.com 1.10,2013-11-05 09:51:00,
2013-11-05 02:06:00,34.1,32.0,30.13,SE,136,2.0,14.0,90,0.04,,,0.00,weatherlink.com 1.10,2013-11-05 10:06:00,
2013-11-05 02:21:00,34.4,32.0,30.13,SSE,152,1.0,10.0,90,0.02,,,0.00,weatherlink.com 1.10,2013-11-05 10:21:00,
2013-11-05 02:36:00,34.4,32.0,30.12,SSE,158,6.0,9.0,89,0.00,,,0.00,weatherlink.com 1.10,2013-11-05 10:36:00,
2013-11-05 02:51:00,34.6,32.0,30.12,SE,146,6.0,10.0,89,0.00,,,0.00,weatherlink.com 1.10,2013-11-05 10:51:00,
2013-11-05 03:06:00,35.0,32.0,30.12,SE,146,4.0,11.0,89,0.01,,,0.01,weatherlink.com 1.10,2013-11-05 11:06:00,
2013-11-05 03:21:00,35.1,33.0,30.12,SSE,150,2.0,11.0,90,0.01,,,0.01,weatherlink.com 1.10,2013-11-05 11:21:00,
2013-11-05 03:36:00,35.3,33.0,30.12,ESE,116,3.0,10.0,90,0.02,,,0.02,weatherlink.com 1.10,2013-11-05 11:36:00,
2013-11-05 03:51:00,35.5,33.0,30.12,East,94,6.0,10.0,89,0.02,,,0.02,weatherlink.com 1.10,2013-11-05 11:51:00,
2013-11-05 04:06:00,35.5,33.0,30.11,SE,143,8.0,10.0,89,0.01,,,0.02,weatherlink.com 1.10,2013-11-05 12:06:00,
2013-11-05 04:21:00,36.0,33.0,30.11,East,91,6.0,10.0,88,0.01,,,0.02,weatherlink.com 1.10,2013-11-05 12:21:00,
2013-11-05 04:36:00,36.2,33.0,30.12,SE,129,8.0,12.0,88,0.00,,,0.02,weatherlink.com 1.10,2013-11-05 12:36:00,
2013-11-05 04:51:00,36.2,33.0,30.12,SSE,167,1.0,9.0,89,0.01,,,0.03,weatherlink.com 1.10,2013-11-05 12:51:00,
2013-11-05 05:06:00,36.3,33.0,30.13,SE,124,2.0,11.0,88,0.01,,,0.03,weatherlink.com 1.10,2013-11-05 13:06:00,
2013-11-05 05:21:00,36.5,33.0,30.13,SSE,159,1.0,7.0,88,0.01,,,0.03,weatherlink.com 1.10,2013-11-05 13:21:00,
2013-11-05 05:36:00,36.7,34.0,30.13,SE,134,3.0,10.0,88,0.01,,,0.03,weatherlink.com 1.10,2013-11-05 13:36:00,
2013-11-05 05:51:00,36.6,34.0,30.13,South,179,4.0,12.0,89,0.00,,,0.03,weatherlink.com 1.10,2013-11-05 13:51:00,
2013-11-05 06:06:00,36.3,33.0,30.12,SE,127,3.0,11.0,89,0.00,,,0.03,weatherlink.com 1.10,2013-11-05 14:06:00,
2013-11-05 06:21:00,36.4,34.0,30.12,SE,132,3.0,10.0,89,0.00,,,0.03,weatherlink.com 1.10,2013-11-05 14:21:00,
2013-11-05 06:36:00,36.6,34.0,30.13,SE,143,7.0,9.0,89,0.00,,,0.03,weatherlink.com 1.10,2013-11-05 14:36:00,
2013-11-05 06:51:00,36.6,34.0,30.14,SE,138,4.0,9.0,89,0.00,,,0.03,weatherlink.com 1.10,2013-11-05 14:51:00,
2013-11-05 07:06:00,37.0,34.0,30.14,SSE,151,6.0,10.0,88,0.00,,,0.03,weatherlink.com 1.10,2013-11-05 15:06:00,
2013-11-05 07:21:00,37.0,34.0,30.14,SE,146,3.0,10.0,88,0.00,,,0.03,weatherlink.com 1.10,2013-11-05 15:21:00,
2013-11-05 07:36:00,37.1,34.0,30.14,SSE,153,3.0,8.0,88,0.00,,,0.03,weatherlink.com 1.10,2013-11-05 15:36:00,
2013-11-05 07:51:00,37.3,34.0,30.14,SSE,163,5.0,10.0,88,0.00,,,0.03,weatherlink.com 1.10,2013-11-05 15:51:00,
2013-11-05 08:06:00,37.5,34.0,30.15,SE,133,7.0,10.0,88,0.00,,,0.03,weatherlink.com 1.10,2013-11-05 16:06:00,
2013-11-05 08:21:00,37.9,35.0,30.16,South,176,5.0,12.0,88,0.00,,,0.03,weatherlink.com 1.10,2013-11-05 16:21:00,
2013-11-05 08:36:00,37.5,35.0,30.16,SSE,153,6.0,12.0,91,0.02,,,0.05,weatherlink.com 1.10,2013-11-05 16:36:00,
2013-11-05 08:51:00,37.7,35.0,30.15,SSE,158,5.0,10.0,91,0.03,,,0.06,weatherlink.com 1.10,2013-11-05 16:51:00,
2013-11-05 09:07:00,38.0,36.0,30.16,South,177,4.0,10.0,91,0.03,,,0.06,weatherlink.com 1.10,2013-11-05 17:07:00,
2013-11-05 09:21:00,38.3,36.0,30.16,SSE,163,4.0,10.0,90,0.03,,,0.06,weatherlink.com 1.10,2013-11-05 17:21:00,
2013-11-05 09:36:00,38.7,36.0,30.17,SSE,151,3.0,12.0,90,0.01,,,0.06,weatherlink.com 1.10,2013-11-05 17:36:00,
2013-11-05 09:51:00,39.1,37.0,30.17,SSE,155,2.0,9.0,90,0.01,,,0.07,weatherlink.com 1.10,2013-11-05 17:51:00,
2013-11-05 10:06:00,39.2,37.0,30.17,South,172,5.0,10.0,91,0.01,,,0.07,weatherlink.com 1.10,2013-11-05 18:06:00,
2013-11-05 10:21:00,39.3,37.0,30.17,SSE,163,3.0,13.0,90,0.02,,,0.08,weatherlink.com 1.10,2013-11-05 18:21:00,
2013-11-05 10:36:00,39.5,37.0,30.16,South,177,3.0,7.0,91,0.02,,,0.08,weatherlink.com 1.10,2013-11-05 18:36:00,
2013-11-05 10:51:00,39.8,37.0,30.16,SSE,155,3.0,11.0,90,0.01,,,0.08,weatherlink.com 1.10,2013-11-05 18:51:00,
2013-11-05 11:07:00,39.9,38.0,30.16,ESE,117,4.0,13.0,91,0.01,,,0.08,weatherlink.com 1.10,2013-11-05 19:07:00,
2013-11-05 11:22:00,40.4,38.0,30.15,SE,124,3.0,11.0,90,0.00,,,0.08,weatherlink.com 1.10,2013-11-05 19:22:00,
2013-11-05 11:37:00,41.3,38.0,30.15,SSE,163,4.0,10.0,88,0.00,,,0.08,weatherlink.com 1.10,2013-11-05 19:37:00,
2013-11-05 11:52:00,41.5,38.0,30.14,ESE,103,2.0,12.0,88,0.00,,,0.08,weatherlink.com 1.10,2013-11-05 19:52:00,
2013-11-05 12:07:00,41.7,38.0,30.14,SSE,148,6.0,11.0,88,0.00,,,0.08,weatherlink.com 1.10,2013-11-05 20:07:00,
2013-11-05 12:22:00,41.6,38.0,30.14,SSW,202,5.0,9.0,88,0.00,,,0.08,weatherlink.com 1.10,2013-11-05 20:22:00,
2013-11-05 12:37:00,41.2,38.0,30.14,SE,134,2.0,9.0,89,0.01,,,0.09,weatherlink.com 1.10,2013-11-05 20:37:00,
2013-11-05 12:52:00,41.2,39.0,30.14,SE,139,2.0,7.0,90,0.01,,,0.09,weatherlink.com 1.10,2013-11-05 20:52:00,
2013-11-05 13:07:00,41.7,39.0,30.14,SE,135,4.0,5.0,89,0.01,,,0.09,weatherlink.com 1.10,2013-11-05 21:07:00,
2013-11-05 13:22:00,42.0,39.0,30.13,SSW,202,1.0,6.0,88,0.01,,,0.09,weatherlink.com 1.10,2013-11-05 21:22:00,
2013-11-05 13:37:00,42.8,39.0,30.13,SSE,149,3.0,5.0,87,0.00,,,0.09,weatherlink.com 1.10,2013-11-05 21:37:00,
2013-11-05 13:52:00,43.2,39.0,30.13,SE,145,4.0,7.0,86,0.00,,,0.09,weatherlink.com 1.10,2013-11-05 21:52:00,
2013-11-05 14:07:00,43.6,39.0,30.13,SSE,160,3.0,7.0,84,0.00,,,0.09,weatherlink.com 1.10,2013-11-05 22:07:00,
2013-11-05 14:22:00,43.7,39.0,30.14,South,191,3.0,5.0,83,0.00,,,0.09,weatherlink.com 1.10,2013-11-05 22:22:00,
2013-11-05 14:37:00,43.5,39.0,30.14,WSW,244,0.0,5.0,85,0.00,,,0.09,weatherlink.com 1.10,2013-11-05 22:37:00,
2013-11-05 14:52:00,43.6,39.0,30.14,SE,136,1.0,4.0,84,0.00,,,0.09,weatherlink.com 1.10,2013-11-05 22:52:00,
2013-11-05 15:07:00,43.2,39.0,30.14,SSW,207,0.0,6.0,86,0.00,,,0.09,weatherlink.com 1.10,2013-11-05 23:07:00,
2013-11-05 15:22:00,44.5,40.0,30.15,West,271,4.0,9.0,83,0.00,,,0.09,weatherlink.com 1.10,2013-11-05 23:22:00,
2013-11-05 15:37:00,45.2,40.0,30.14,SW,232,4.0,8.0,82,0.00,,,0.09,weatherlink.com 1.10,2013-11-05 23:37:00,
2013-11-05 15:52:00,44.6,39.0,30.14,SSW,207,5.0,9.0,82,0.00,,,0.09,weatherlink.com 1.10,2013-11-05 23:52:00,
2013-11-05 16:07:00,44.7,40.0,30.14,SW,218,3.0,11.0,82,0.00,,,0.09,weatherlink.com 1.10,2013-11-06 00:07:00,
2013-11-05 16:22:00,45.0,40.0,30.14,West,274,2.0,8.0,81,0.00,,,0.09,weatherlink.com 1.10,2013-11-06 00:22:00,
2013-11-05 16:37:00,44.9,39.0,30.14,South,184,7.0,7.0,81,0.00,,,0.09,weatherlink.com 1.10,2013-11-06 00:37:00,
2013-11-05 16:52:00,44.8,39.0,30.14,SE,145,5.0,8.0,81,0.00,,,0.09,weatherlink.com 1.10,2013-11-06 00:52:00,
2013-11-05 17:07:00,44.7,40.0,30.15,WSW,250,2.0,7.0,82,0.00,,,0.09,weatherlink.com 1.10,2013-11-06 01:07:00,
2013-11-05 17:22:00,44.5,39.0,30.15,SW,218,4.0,7.0,82,0.00,,,0.09,weatherlink.com 1.10,2013-11-06 01:22:00,
2013-11-05 17:37:00,44.5,39.0,30.16,WNW,284,1.0,5.0,82,0.00,,,0.09,weatherlink.com 1.10,2013-11-06 01:37:00,
2013-11-05 17:52:00,44.4,39.0,30.17,SSW,204,1.0,7.0,82,0.00,,,0.09,weatherlink.com 1.10,2013-11-06 01:52:00,
2013-11-05 18:07:00,44.5,39.0,30.17,SW,235,4.0,7.0,82,0.00,,,0.09,weatherlink.com 1.10,2013-11-06 02:07:00,
2013-11-05 18:22:00,44.4,39.0,30.17,WNW,285,4.0,10.0,82,0.00,,,0.09,weatherlink.com 1.10,2013-11-06 02:22:00,
2013-11-05 18:37:00,44.3,39.0,30.18,West,260,6.0,9.0,83,0.00,,,0.09,weatherlink.com 1.10,2013-11-06 02:37:00,
2013-11-05 18:52:00,44.1,39.0,30.18,WSW,238,1.0,7.0,83,0.00,,,0.09,weatherlink.com 1.10,2013-11-06 02:52:00,
2013-11-05 19:07:00,43.8,39.0,30.18,SW,217,3.0,8.0,84,0.00,,,0.09,weatherlink.com 1.10,2013-11-06 03:07:00,
2013-11-05 19:22:00,44.2,39.0,30.18,WSW,245,5.0,13.0,83,0.00,,,0.09,weatherlink.com 1.10,2013-11-06 03:22:00,
2013-11-05 19:37:00,44.5,39.0,30.18,SW,221,1.0,10.0,82,0.00,,,0.09,weatherlink.com 1.10,2013-11-06 03:37:00,
2013-11-05 19:52:00,44.5,39.0,30.18,SE,134,1.0,9.0,82,0.00,,,0.09,weatherlink.com 1.10,2013-11-06 03:52:00,
2013-11-05 20:07:00,44.0,39.0,30.18,SSE,156,3.0,10.0,81,0.00,,,0.09,weatherlink.com 1.10,2013-11-06 04:07:00,
2013-11-05 20:22:00,44.1,38.0,30.18,West,271,3.0,7.0,80,0.00,,,0.09,weatherlink.com 1.10,2013-11-06 04:22:00,
2013-11-05 20:37:00,44.3,38.0,30.19,South,174,2.0,6.0,79,0.00,,,0.09,weatherlink.com 1.10,2013-11-06 04:37:00,
2013-11-05 20:52:00,44.2,38.0,30.20,South,183,1.0,5.0,79,0.00,,,0.09,weatherlink.com 1.10,2013-11-06 04:52:00,
2013-11-05 21:07:00,44.3,38.0,30.20,West,278,1.0,8.0,79,0.00,,,0.09,weatherlink.com 1.10,2013-11-06 05:07:00,
2013-11-05 21:22:00,44.5,38.0,30.20,WSW,237,1.0,8.0,79,0.00,,,0.09,weatherlink.com 1.10,2013-11-06 05:22:00,
2013-11-05 21:37:00,44.5,39.0,30.20,South,191,2.0,5.0,80,0.00,,,0.09,weatherlink.com 1.10,2013-11-06 05:37:00,
2013-11-05 21:52:00,44.1,39.0,30.21,SE,141,1.0,4.0,81,0.00,,,0.09,weatherlink.com 1.10,2013-11-06 05:52:00,
2013-11-05 22:07:00,43.6,38.0,30.21,SSE,152,1.0,6.0,82,0.00,,,0.09,weatherlink.com 1.10,2013-11-06 06:07:00,
2013-11-05 22:22:00,43.2,38.0,30.21,SSE,148,3.0,4.0,83,0.00,,,0.09,weatherlink.com 1.10,2013-11-06 06:22:00,
2013-11-05 22:37:00,43.7,39.0,30.21,SE,146,5.0,6.0,82,0.00,,,0.09,weatherlink.com 1.10,2013-11-06 06:37:00,
2013-11-05 22:53:00,43.2,38.0,30.20,SE,134,1.0,5.0,83,0.00,,,0.09,weatherlink.com 1.10,2013-11-06 06:53:00,
2013-11-05 23:08:00,42.8,38.0,30.20,SSW,195,2.0,6.0,84,0.00,,,0.09,weatherlink.com 1.10,2013-11-06 07:08:00,
2013-11-05 23:23:00,42.2,38.0,30.21,South,178,2.0,5.0,86,0.00,,,0.09,weatherlink.com 1.10,2013-11-06 07:23:00,
2013-11-05 23:38:00,42.2,39.0,30.21,ESE,108,2.0,7.0,87,0.00,,,0.09,weatherlink.com 1.10,2013-11-06 07:38:00,
2013-11-05 23:53:00,42.0,38.0,30.21,SSE,159,2.0,5.0,87,0.00,,,0.09,weatherlink.com 1.10,2013-11-06 07:53:00,